METAR Data
IDs: Format: Raw Decoded Include TAF

Data at: 2104 UTC 18 Sep 2018

KJWY 182055Z AUTO 19005KT 10SM CLR 34/21 A2994 RMK AO2 T03390211
KJWY 182035Z AUTO 00000KT 10SM CLR 34/21 A2994 RMK AO2 T03350210
KJWY 182015Z AUTO 16004KT 10SM CLR 34/21 A2995 RMK AO2 T03360207
KJWY 181955Z AUTO 16005KT 10SM CLR 34/22 A2995 RMK AO2 T03360216
KJWY 181935Z AUTO 19006KT 10SM CLR 33/21 A2996 RMK AO2 T03340214
KJWY 181915Z AUTO 14005KT 10SM SCT050 SCT065 33/21 A2997 RMK AO2 T03330214
KJWY 181835Z AUTO 17006KT 10SM BKN050 33/22 A2999 RMK AO2 T03310223
KJWY 181815Z AUTO 20005KT 10SM SCT046 33/22 A3000 RMK AO2 T03260222
KJWY 181755Z AUTO 21007KT 10SM SCT046 32/22 A3001 RMK AO2 T03220221 10325 20223
KJWY 181735Z AUTO 17004KT 10SM SCT043 SCT050 32/22 A3001 RMK AO2 T03230222
KJWY 181715Z AUTO 21003KT 10SM SCT042 32/22 A3002 RMK AO2 T03150219
KJWY 181655Z AUTO 21005KT 10SM CLR 31/22 A3003 RMK AO2 T03120221
KJWY 181635Z AUTO 23003KT 10SM CLR 31/21 A3003 RMK AO2 T03100214
KJWY 181615Z AUTO 21003KT 10SM CLR 31/22 A3003 RMK AO2 T03090220
KJWY 181555Z AUTO 25003KT 10SM CLR 30/22 A3004 RMK AO2 T03030216
KJWY 181535Z AUTO 26004KT 10SM CLR 30/22 A3004 RMK AO2 T02980220
KJWY 181515Z AUTO 25004KT 10SM CLR 30/22 A3003 RMK AO2 T02950220
KJWY 181455Z AUTO 25005KT 10SM CLR 29/22 A3003 RMK AO2 T02890221
KJWY 181435Z AUTO 25003KT 10SM CLR 28/22 A3003 RMK AO2 T02790223
KJWY 181415Z AUTO 00000KT 10SM CLR 27/22 A3003 RMK AO2 T02680218
KJWY 181355Z AUTO 00000KT 10SM CLR 26/22 A3003 RMK AO2 T02600221
KJWY 181335Z AUTO 00000KT 10SM CLR 25/22 A3003 RMK AO2 T02510218
KJWY 181315Z AUTO 00000KT 10SM CLR 24/23 A3003 RMK AO2 T02400225
KJWY 181255Z AUTO 00000KT 10SM CLR 23/22 A3002 RMK AO2 T02300223
KJWY 181235Z AUTO 00000KT 10SM CLR 23/22 A3001 RMK AO2 T02280218
KJWY 181215Z AUTO 00000KT 10SM CLR 23/22 A3001 RMK AO2 T02250220
KJWY 181155Z AUTO 00000KT 10SM CLR 22/22 A3001 RMK AO2 T02230221 10251 20222
KJWY 181135Z AUTO 00000KT 10SM CLR 22/22 A3000 RMK AO2 T02230220
KJWY 181115Z AUTO 00000KT 10SM CLR 23/22 A3000 RMK AO2 T02250221
KJWY 181055Z AUTO 00000KT 10SM CLR 22/22 A3000 RMK AO2 T02220220
KJWY 181035Z AUTO 00000KT 10SM CLR 23/22 A3000 RMK AO2 T02250220
KJWY 181015Z AUTO 00000KT 10SM CLR 23/22 A2999 RMK AO2 T02260220
KJWY 180955Z AUTO 00000KT 10SM CLR 23/21 A2999 RMK AO2 T02330211
KJWY 180935Z AUTO 00000KT 10SM CLR 24/21 A2999 RMK AO2 T02370211
KJWY 180915Z AUTO 00000KT 10SM CLR 24/21 A2999 RMK AO2 T02350211
KJWY 180855Z AUTO 00000KT 10SM CLR 23/21 A2999 RMK AO2 T02310213
KJWY 180835Z AUTO 00000KT 10SM CLR 24/21 A2999 RMK AO2 T02360213
KJWY 180815Z AUTO 00000KT 10SM CLR 24/21 A2999 RMK AO2 T02400213
KJWY 180755Z AUTO 00000KT 10SM CLR 24/21 A2999 RMK AO2 T02430214
KJWY 180735Z AUTO 16003KT 10SM CLR 25/22 A2999 RMK AO2 T02450215
KJWY 180715Z AUTO 00000KT 10SM CLR 25/22 A2999 RMK AO2 T02450215
KJWY 180655Z AUTO 00000KT 10SM CLR 25/22 A2999 RMK AO2 T02470218
KJWY 180635Z AUTO 00000KT 10SM CLR 25/22 A2999 RMK AO2 T02500217
KJWY 180615Z AUTO 15003KT 10SM CLR 25/22 A3000 RMK AO2 T02510220
KJWY 180555Z AUTO 00000KT 10SM CLR 25/22 A3000 RMK AO2 T02500220 10315 20248 403340232
KJWY 180535Z AUTO 00000KT 10SM CLR 25/22 A3000 RMK AO2 T02540220
KJWY 180515Z AUTO 00000KT 10SM CLR 25/22 A3000 RMK AO2 T02530220
KJWY 180500Z AUTO 00000KT 10SM CLR 25/22 A3000 RMK AO2 T02500221
KJWY 180435Z AUTO 00000KT 10SM CLR 25/23 A3000 RMK AO2 T02480227
KJWY 180415Z AUTO 00000KT 10SM CLR 25/23 A3000 RMK AO2 T02510230
KJWY 180355Z AUTO 00000KT 10SM CLR 25/23 A3000 RMK AO2 T02520226
KJWY 180335Z AUTO 00000KT 10SM CLR 26/22 A2999 RMK AO2 T02580221
KJWY 180315Z AUTO 00000KT 10SM CLR 26/23 A2999 RMK AO2 T02640225
KJWY 180255Z AUTO 00000KT 10SM CLR 27/22 A2998 RMK AO2 T02660221
KJWY 180235Z AUTO 00000KT 10SM CLR 27/23 A2998 RMK AO2 T02650228
KJWY 180215Z AUTO 00000KT 10SM CLR 27/22 A2996 RMK AO2 T02660221
KJWY 180155Z AUTO 00000KT 10SM CLR 27/23 A2996 RMK AO2 T02710225
KJWY 180135Z AUTO 00000KT 10SM CLR 27/22 A2995 RMK AO2 T02720223
KJWY 180115Z AUTO 00000KT 10SM CLR 28/22 A2994 RMK AO2 T02750223
KJWY 180055Z AUTO 00000KT 10SM CLR 28/23 A2993 RMK AO2 T02800229
KJWY 180035Z AUTO 00000KT 10SM CLR 29/22 A2993 RMK AO2 T02930218
KJWY 180015Z AUTO 00000KT 10SM CLR 30/22 A2993 RMK AO2 T03000220
KJWY 172355Z AUTO 00000KT 10SM CLR 32/21 A2994 RMK AO2 T03160209 10334 20310
KJWY 172335Z AUTO 16003KT 10SM CLR 32/21 A2994 RMK AO2 T03220205
KJWY 172315Z AUTO 21003KT 10SM CLR 32/21 A2994 RMK AO2 T03160207
KJWY 172255Z AUTO 00000KT 10SM CLR 33/20 A2994 RMK AO2 T03250199
KJWY 172235Z AUTO 00000KT 10SM CLR 33/20 A2994 RMK AO2 T03310202
KJWY 172215Z AUTO 00000KT 10SM CLR 33/20 A2994 RMK AO2 T03300200
KJWY 172155Z AUTO 18003KT 10SM CLR 33/21 A2995 RMK AO2 T03250207
KJWY 172135Z AUTO 21004KT 10SM CLR 32/21 A2995 RMK AO2 T03190211
KJWY 172115Z AUTO 24004KT 10SM CLR 33/21 A2995 RMK AO2 T03300212
KJWY 172055Z AUTO 24006KT 10SM SCT050 33/22 A2996 RMK AO2 T03290217
KJWY 172035Z AUTO 21006KT 10SM SCT050 33/22 A2996 RMK AO2 T03280217
KJWY 172015Z AUTO 20007KT 10SM SCT047 33/22 A2997 RMK AO2 T03260218
KJWY 171955Z AUTO 23005KT 10SM SCT043 SCT049 33/22 A2998 RMK AO2 T03260224
KJWY 171935Z AUTO 22007KT 10SM SCT043 32/23 A2998 RMK AO2 T03240225
KJWY 171915Z AUTO 21004KT 10SM SCT043 32/22 A2999 RMK AO2 T03210222
KJWY 171855Z AUTO 23006KT 10SM SCT042 SCT049 32/22 A3000 RMK AO2 T03150221
KJWY 171835Z AUTO 19008KT 10SM CLR 32/22 A3000 RMK AO2 T03160216
KJWY 171815Z AUTO 18004KT 10SM CLR 31/21 A3001 RMK AO2 T03130211
KJWY 171755Z AUTO 21003KT 10SM CLR 31/21 A3002 RMK AO2 T03120210 10313 20232
KJWY 171735Z AUTO 19004KT 10SM CLR 31/21 A3002 RMK AO2 T03100210
KJWY 171715Z AUTO 23006KT 10SM CLR 31/21 A3003 RMK AO2 T03100211
KJWY 171655Z AUTO 25006KT 10SM CLR 31/21 A3003 RMK AO2 T03080214
KJWY 171635Z AUTO 26006KT 10SM CLR 31/21 A3003 RMK AO2 T03050210
KJWY 171615Z AUTO 23006KT 10SM CLR 30/22 A3003 RMK AO2 T03040217
KJWY 171555Z AUTO 26007KT 10SM CLR 30/21 A3003 RMK AO2 T02980214
KJWY 171535Z AUTO 24006KT 10SM CLR 30/22 A3003 RMK AO2 T02970223
KJWY 171515Z AUTO 25006KT 10SM CLR 29/22 A3002 RMK AO2 T02860218
KJWY 171455Z AUTO 24005KT 10SM CLR 28/22 A3002 RMK AO2 T02760220
KJWY 171435Z AUTO 25003KT 10SM CLR 27/23 A3002 RMK AO2 T02690234
KJWY 171415Z AUTO 28003KT 10SM CLR 26/24 A3001 RMK AO2 T02550239
KJWY 171355Z AUTO 00000KT 10SM CLR 25/24 A3001 RMK AO2 T02490242
KJWY 171335Z AUTO 00000KT 10SM CLR 25/24 A3000 RMK AO2 T02470238
KJWY 171315Z AUTO 00000KT 10SM CLR 24/24 A3000 RMK AO2 T02400237
KJWY 171255Z AUTO 00000KT 10SM CLR 24/24 A2999 RMK AO2 T02350235
KJWY 171235Z AUTO 00000KT 10SM CLR 23/23 A2998 RMK AO2 T02330233
KJWY 171215Z AUTO 00000KT 10SM CLR 23/23 A2998 RMK AO2 T02330232
KJWY 171155Z AUTO 00000KT 10SM CLR 24/23 A2997 RMK AO2 T02350233 10250 20234
KJWY 171135Z AUTO 00000KT 10SM CLR 24/24 A2997 RMK AO2 T02360235
KJWY 171115Z AUTO 00000KT 10SM CLR 24/23 A2997 RMK AO2 T02350234
KJWY 171055Z AUTO 00000KT 10SM CLR 24/24 A2996 RMK AO2 T02350235
KJWY 171035Z AUTO 25003KT 10SM CLR 24/23 A2996 RMK AO2 T02350233
KJWY 171015Z AUTO 25003KT 10SM CLR 24/24 A2995 RMK AO2 T02350235
KJWY 170955Z AUTO 26003KT 10SM CLR 24/24 A2995 RMK AO2 T02350235
KJWY 170935Z AUTO 00000KT 10SM CLR 24/24 A2995 RMK AO2 T02370235
KJWY 170915Z AUTO 00000KT 10SM CLR 24/24 A2996 RMK AO2 T02360235